createdAt,value
2023-09-16T00:01:37.522Z,101774.41
2023-09-16T00:04:05.066Z,101770.88
2023-09-16T00:06:31.815Z,101769.72
2023-09-16T00:08:58.445Z,101768.41
2023-09-16T00:11:26.723Z,101759.56
2023-09-16T00:13:53.248Z,101774.72
2023-09-16T00:16:20.033Z,101766.88
2023-09-16T00:18:46.864Z,101762.72
2023-09-16T00:21:15.559Z,101764.56
2023-09-16T00:23:43.558Z,101764.22
2023-09-16T00:26:10.404Z,101751.38
2023-09-16T00:28:38.211Z,101756.72
2023-09-16T00:31:07.498Z,101747.75
2023-09-16T00:33:34.617Z,101746.88
2023-09-16T00:36:01.174Z,101741.06
2023-09-16T00:38:27.811Z,101751.75
2023-09-16T00:40:54.421Z,101745.72
2023-09-16T00:43:21.179Z,101741.22
2023-09-16T00:45:47.842Z,101742.03
2023-09-16T00:48:16.355Z,101738.72
2023-09-16T00:50:44.150Z,101744.38
2023-09-16T00:53:12.729Z,101739.38
2023-09-16T00:55:39.783Z,101740.88
2023-09-16T00:58:09.226Z,101737.41
2023-09-16T01:00:37.441Z,101733.19
2023-09-16T01:03:06.023Z,101731.22
2023-09-16T01:05:35.251Z,101730.69
2023-09-16T01:08:02.585Z,101734.00
2023-09-16T01:10:29.150Z,101740.00
2023-09-16T01:12:58.085Z,101735.66
2023-09-16T01:15:28.927Z,101727.19
2023-09-16T01:18:20.579Z,101728.31
2023-09-16T01:20:49.249Z,101730.00
2023-09-16T01:23:19.544Z,101730.00
2023-09-16T01:25:46.117Z,101719.50
2023-09-16T01:28:12.647Z,101724.16
2023-09-16T01:30:45.466Z,101723.34
2023-09-16T01:33:26.296Z,101731.34
2023-09-16T01:36:01.333Z,101726.34
2023-09-16T01:38:29.957Z,101724.41
2023-09-16T01:40:58.295Z,101724.00
2023-09-16T01:43:26.959Z,101726.50
2023-09-16T01:45:54.031Z,101723.50
2023-09-16T01:48:29.796Z,101714.03
2023-09-16T01:51:03.511Z,101714.50
2023-09-16T01:53:30.111Z,101714.66
2023-09-16T01:55:56.606Z,101706.03
2023-09-16T01:58:23.138Z,101708.16
2023-09-16T02:00:49.712Z,101708.66
2023-09-16T02:03:17.042Z,101702.34
2023-09-16T02:05:43.662Z,101699.00
2023-09-16T02:08:10.224Z,101691.84
2023-09-16T02:10:37.547Z,101692.19
2023-09-16T02:13:04.231Z,101695.00
2023-09-16T02:15:31.114Z,101693.81
2023-09-16T02:17:57.658Z,101695.84
2023-09-16T02:20:24.339Z,101698.44
2023-09-16T02:22:50.856Z,101698.13
2023-09-16T02:25:17.574Z,101689.66
2023-09-16T02:27:44.062Z,101690.63
2023-09-16T02:30:10.904Z,101692.63
2023-09-16T02:32:37.419Z,101691.63
2023-09-16T02:35:04.630Z,101690.28
2023-09-16T02:37:31.215Z,101685.97
2023-09-16T02:39:57.877Z,101682.47
2023-09-16T02:42:24.421Z,101677.44
2023-09-16T02:44:52.017Z,101684.63
2023-09-16T02:47:18.564Z,101675.94
2023-09-16T02:49:45.273Z,101666.31
2023-09-16T02:52:12.161Z,101668.34
2023-09-16T02:54:38.719Z,101664.66
2023-09-16T02:57:05.314Z,101668.66
2023-09-16T02:59:31.823Z,101658.31
2023-09-16T03:01:58.842Z,101658.97
2023-09-16T03:04:25.542Z,101655.66
2023-09-16T03:06:53.522Z,101646.50
2023-09-16T03:09:20.634Z,101651.66
2023-09-16T03:11:48.188Z,101653.63
2023-09-16T03:14:15.361Z,101659.97
2023-09-16T03:16:43.141Z,101661.63
2023-09-16T03:19:09.802Z,101661.63
2023-09-16T03:21:36.555Z,101660.59
2023-09-16T03:24:05.641Z,101656.63
2023-09-16T03:26:33.949Z,101659.13
2023-09-16T03:29:00.616Z,101664.13
2023-09-16T03:31:28.358Z,101662.97
2023-09-16T03:33:58.398Z,101665.63
2023-09-16T03:36:25.897Z,101664.97
2023-09-16T03:38:52.798Z,101654.31
2023-09-16T03:41:19.584Z,101652.81
2023-09-16T03:43:53.405Z,101659.13
2023-09-16T03:46:22.958Z,101655.66
2023-09-16T03:48:49.834Z,101657.47
2023-09-16T03:51:16.672Z,101662.28
2023-09-16T03:53:43.295Z,101648.13
2023-09-16T03:56:10.094Z,101652.13
2023-09-16T03:58:37.889Z,101642.97
2023-09-16T04:01:05.191Z,101645.94
2023-09-16T04:03:32.818Z,101652.28
2023-09-16T04:05:59.519Z,101651.97
2023-09-16T04:08:40.620Z,101645.63
2023-09-16T04:11:09.428Z,101647.81
2023-09-16T04:13:37.458Z,101641.94
2023-09-16T04:16:04.904Z,101644.44
2023-09-16T04:18:32.192Z,101646.63
2023-09-16T04:20:58.855Z,101643.28
2023-09-16T04:23:26.133Z,101642.94
2023-09-16T04:25:57.991Z,101651.78
2023-09-16T04:28:25.980Z,101647.94
2023-09-16T04:30:54.468Z,101650.91
2023-09-16T04:33:23.062Z,101655.53
2023-09-16T04:35:51.873Z,101649.91
2023-09-16T04:38:19.959Z,101643.25
2023-09-16T04:40:49.269Z,101644.38
2023-09-16T04:43:16.858Z,101643.47
2023-09-16T04:45:50.667Z,101640.13
2023-09-16T04:48:28.663Z,101637.47
2023-09-16T04:50:55.245Z,101634.00
2023-09-16T04:53:21.891Z,101645.28
2023-09-16T04:55:48.431Z,101639.81
2023-09-16T04:58:15.118Z,101638.78
2023-09-16T05:00:43.250Z,101635.47
2023-09-16T05:03:11.102Z,101633.94
2023-09-16T05:05:37.943Z,101640.41
2023-09-16T05:08:06.090Z,101631.09
2023-09-16T05:10:33.428Z,101638.78
2023-09-16T05:13:00.729Z,101642.75
2023-09-16T05:15:29.002Z,101645.06
2023-09-16T05:17:56.121Z,101645.88
2023-09-16T05:20:22.789Z,101643.06
2023-09-16T05:22:51.614Z,101645.56
2023-09-16T05:25:22.570Z,101642.25
2023-09-16T05:27:49.726Z,101642.09
2023-09-16T05:30:17.008Z,101651.19
2023-09-16T05:32:45.777Z,101652.72
2023-09-16T05:35:12.358Z,101643.75
2023-09-16T05:37:39.087Z,101645.25
2023-09-16T05:40:07.852Z,101646.91
2023-09-16T05:42:34.426Z,101646.91
2023-09-16T05:45:01.750Z,101648.06
2023-09-16T05:47:31.816Z,101647.75
2023-09-16T05:49:59.134Z,101641.44
2023-09-16T05:52:25.711Z,101642.94
2023-09-16T05:54:53.653Z,101645.94
2023-09-16T05:57:20.269Z,101644.47
2023-09-16T05:59:46.945Z,101640.44
2023-09-16T06:02:13.658Z,101647.75
2023-09-16T06:04:40.219Z,101649.41
2023-09-16T06:07:06.837Z,101650.78
2023-09-16T06:09:34.092Z,101655.53
2023-09-16T06:12:01.703Z,101658.50
2023-09-16T06:14:28.257Z,101653.16
2023-09-16T06:16:55.785Z,101659.53
2023-09-16T06:19:26.733Z,101662.53
2023-09-16T06:21:54.069Z,101658.59
2023-09-16T06:24:22.678Z,101657.25
2023-09-16T06:26:49.786Z,101658.75
2023-09-16T06:29:16.321Z,101653.94
2023-09-16T06:31:42.871Z,101659.94
2023-09-16T06:34:09.976Z,101655.81
2023-09-16T06:36:39.966Z,101653.78
2023-09-16T06:39:08.447Z,101655.97
2023-09-16T06:41:35.714Z,101647.03
2023-09-16T06:44:11.500Z,101641.34
2023-09-16T06:46:40.596Z,101645.03
2023-09-16T06:49:07.244Z,101643.06
2023-09-16T06:51:33.879Z,101643.38
2023-09-16T06:54:00.411Z,101645.25
2023-09-16T06:56:27.038Z,101645.91
2023-09-16T06:58:57.763Z,101647.75
2023-09-16T07:01:25.515Z,101653.06
2023-09-16T07:03:52.146Z,101650.25
2023-09-16T07:06:18.717Z,101650.25
2023-09-16T07:08:45.277Z,101649.09
2023-09-16T07:11:13.178Z,101649.06
2023-09-16T07:13:39.644Z,101648.44
2023-09-16T07:16:07.599Z,101647.63
2023-09-16T07:18:35.239Z,101654.09
2023-09-16T07:21:01.765Z,101651.09
2023-09-16T07:23:28.344Z,101647.06
2023-09-16T07:25:59.669Z,101642.00
2023-09-16T07:28:28.400Z,101644.28
2023-09-16T07:30:56.441Z,101652.97
2023-09-16T07:33:23.258Z,101647.78
2023-09-16T07:35:52.387Z,101649.75
2023-09-16T07:38:19.480Z,101647.59
2023-09-16T07:40:46.010Z,101648.56
2023-09-16T07:43:13.332Z,101654.59
2023-09-16T07:45:42.649Z,101654.25
2023-09-16T07:48:11.150Z,101653.59
2023-09-16T07:50:37.666Z,101655.06
2023-09-16T07:53:04.390Z,101654.38
2023-09-16T07:55:30.930Z,101660.81
2023-09-16T07:57:57.455Z,101658.09
2023-09-16T08:00:23.988Z,101659.75
2023-09-16T08:02:51.014Z,101660.41
2023-09-16T08:05:18.095Z,101657.41
2023-09-16T08:07:44.605Z,101659.53
2023-09-16T08:10:11.267Z,101648.03
2023-09-16T08:12:37.776Z,101652.41
2023-09-16T08:15:08.328Z,101655.06
2023-09-16T08:17:35.169Z,101650.41
2023-09-16T08:20:01.833Z,101658.69
2023-09-16T08:22:29.527Z,101653.13
2023-09-16T08:24:56.054Z,101651.88
2023-09-16T08:27:22.703Z,101645.84
2023-09-16T08:29:51.436Z,101636.56
2023-09-16T08:32:18.016Z,101640.06
2023-09-16T08:34:45.044Z,101643.22
2023-09-16T08:37:14.737Z,101644.38
2023-09-16T08:39:41.289Z,101643.66
2023-09-16T08:42:25.494Z,101645.44
2023-09-16T08:44:54.550Z,101635.78
2023-09-16T08:47:49.767Z,101633.31
2023-09-16T08:50:18.371Z,101646.91
2023-09-16T08:52:50.876Z,101645.34
2023-09-16T08:55:19.342Z,101639.31
2023-09-16T08:58:02.345Z,101632.97
2023-09-16T09:00:29.053Z,101637.31
2023-09-16T09:02:56.318Z,101635.91
2023-09-16T09:05:24.854Z,101636.66
2023-09-16T09:07:51.919Z,101627.91
2023-09-16T09:10:18.941Z,101633.44
2023-09-16T09:12:46.046Z,101631.28
2023-09-16T09:15:14.878Z,101632.75
2023-09-16T09:17:49.853Z,101635.25
2023-09-16T09:20:21.448Z,101629.91
2023-09-16T09:22:50.191Z,101629.78
2023-09-16T09:25:22.675Z,101629.59
2023-09-16T09:27:54.430Z,101627.72
2023-09-16T09:30:27.827Z,101619.75
2023-09-16T09:32:58.798Z,101615.22
2023-09-16T09:35:27.397Z,101617.38
2023-09-16T09:37:54.186Z,101617.53
2023-09-16T09:40:23.135Z,101617.38
2023-09-16T09:42:51.863Z,101606.81
2023-09-16T09:45:21.883Z,101610.91
2023-09-16T09:47:50.894Z,101613.03
2023-09-16T09:50:19.782Z,101609.63
2023-09-16T09:52:47.938Z,101608.84
2023-09-16T09:55:22.677Z,101604.31
2023-09-16T09:57:53.687Z,101612.78
2023-09-16T10:00:22.240Z,101607.69
2023-09-16T10:02:49.477Z,101599.63
2023-09-16T10:05:24.220Z,101600.22
2023-09-16T10:07:52.820Z,101605.69
2023-09-16T10:10:22.012Z,101605.28
2023-09-16T10:12:54.414Z,101587.31
2023-09-16T10:15:29.713Z,101592.69
2023-09-16T10:17:57.812Z,101595.38
2023-09-16T10:20:24.616Z,101594.38
2023-09-16T10:22:52.423Z,101586.91
2023-09-16T10:25:19.368Z,101582.97
2023-09-16T10:27:58.147Z,101591.66
2023-09-16T10:30:26.049Z,101589.00
2023-09-16T10:32:54.537Z,101584.03
2023-09-16T10:35:21.369Z,101586.53
2023-09-16T10:37:52.005Z,101578.25
2023-09-16T10:40:20.747Z,101569.75
2023-09-16T10:42:48.306Z,101573.66
2023-09-16T10:45:17.212Z,101571.53
2023-09-16T10:47:43.945Z,101568.22
2023-09-16T10:50:11.136Z,101568.97
2023-09-16T10:52:53.251Z,101565.47
2023-09-16T10:55:35.420Z,101553.34
2023-09-16T10:58:36.362Z,101556.25
2023-09-16T11:01:03.833Z,101540.84
2023-09-16T11:03:33.366Z,101553.41
2023-09-16T11:06:02.476Z,101544.94
2023-09-16T11:08:29.815Z,101545.91
2023-09-16T11:10:59.629Z,101517.69
2023-09-16T11:13:29.018Z,101520.22
2023-09-16T11:16:00.093Z,101524.91
2023-09-16T11:18:26.860Z,101513.78
2023-09-16T11:20:54.674Z,101525.56
2023-09-16T11:23:22.904Z,101513.25
2023-09-16T11:25:49.579Z,101488.72
2023-09-16T11:28:19.527Z,101486.31
2023-09-16T11:30:55.415Z,101473.72
2023-09-16T11:33:29.489Z,101469.91
2023-09-16T11:36:13.848Z,101451.19
2023-09-16T11:38:54.047Z,101472.50
2023-09-16T11:41:20.637Z,101459.81
2023-09-16T11:43:47.600Z,101442.53
2023-09-16T11:46:14.661Z,101440.44
2023-09-16T11:48:55.920Z,101445.78
2023-09-16T11:51:26.700Z,101425.50
2023-09-16T11:53:54.921Z,101427.22
2023-09-16T11:56:24.295Z,101422.66
2023-09-16T11:58:51.491Z,101414.00
2023-09-16T12:01:23.623Z,101414.97
2023-09-16T12:03:50.945Z,101410.22
2023-09-16T12:06:19.095Z,101384.75
2023-09-16T12:08:46.508Z,101390.75
2023-09-16T12:11:13.070Z,101389.97
2023-09-16T12:13:42.806Z,101359.41
2023-09-16T12:16:10.876Z,101359.81
2023-09-16T12:18:37.769Z,101372.59
2023-09-16T12:21:06.732Z,101362.16
2023-09-16T12:23:33.594Z,101366.09
2023-09-16T12:26:00.112Z,101357.31
2023-09-16T12:28:27.453Z,101347.56
2023-09-16T12:30:58.765Z,101357.47
2023-09-16T12:33:41.219Z,101362.53
2023-09-16T12:36:08.253Z,101367.53
2023-09-16T12:38:38.089Z,101360.66
2023-09-16T12:41:05.123Z,101359.34
2023-09-16T12:43:33.081Z,101366.09
2023-09-16T12:46:01.818Z,101366.81
2023-09-16T12:48:30.167Z,101354.00
2023-09-16T12:50:57.275Z,101360.00
2023-09-16T12:53:28.079Z,101352.25
2023-09-16T12:55:55.173Z,101343.31
2023-09-16T12:58:23.200Z,101346.53
2023-09-16T13:00:50.938Z,101352.78
2023-09-16T13:03:18.296Z,101337.91
2023-09-16T13:05:52.335Z,101324.53
2023-09-16T13:08:21.169Z,101337.31
2023-09-16T13:10:49.546Z,101343.50
2023-09-16T13:13:17.616Z,101325.31
2023-09-16T13:15:46.251Z,101330.44
2023-09-16T13:18:13.502Z,101339.22
2023-09-16T13:20:43.733Z,101334.97
2023-09-16T13:23:25.906Z,101335.63
2023-09-16T13:26:11.257Z,101332.75
2023-09-16T13:28:37.778Z,101323.03
2023-09-16T13:31:04.602Z,101324.59
2023-09-16T13:34:06.781Z,101323.63
2023-09-16T13:36:41.882Z,101326.72
2023-09-16T13:39:11.210Z,101322.81
2023-09-16T13:41:40.250Z,101320.25
2023-09-16T13:44:09.248Z,101315.06
2023-09-16T13:46:35.804Z,101305.91
2023-09-16T13:49:02.604Z,101300.00
2023-09-16T13:51:29.157Z,101302.16
2023-09-16T13:53:55.622Z,101304.75
2023-09-16T13:56:24.916Z,101286.53
2023-09-16T13:58:51.950Z,101309.41
2023-09-16T14:01:18.987Z,101289.44
2023-09-16T14:03:45.760Z,101280.97
2023-09-16T14:06:12.422Z,101283.69
2023-09-16T14:08:39.091Z,101276.69
2023-09-16T14:11:05.668Z,101280.84
2023-09-16T14:13:32.396Z,101285.63
2023-09-16T14:15:58.965Z,101273.31
2023-09-16T14:18:26.654Z,101273.19
2023-09-16T14:20:53.200Z,101276.28
2023-09-16T14:23:19.822Z,101267.06
2023-09-16T14:25:46.688Z,101267.50
2023-09-16T14:28:13.362Z,101275.75
2023-09-16T14:30:39.911Z,101275.97
2023-09-16T14:33:06.949Z,101265.75
2023-09-16T14:35:34.233Z,101265.97
2023-09-16T14:38:04.575Z,101264.34
2023-09-16T14:40:32.842Z,101262.06
2023-09-16T14:43:00.857Z,101258.88
2023-09-16T14:45:27.500Z,101268.34
2023-09-16T14:47:54.029Z,101251.63
2023-09-16T14:50:20.676Z,101263.75
2023-09-16T14:52:47.285Z,101259.13
2023-09-16T14:55:14.342Z,101246.38
2023-09-16T14:57:40.836Z,101244.06
2023-09-16T15:00:09.591Z,101237.13
2023-09-16T15:02:37.358Z,101243.06
2023-09-16T15:05:07.997Z,101236.94
2023-09-16T15:07:34.559Z,101238.38
2023-09-16T15:10:01.271Z,101256.47
2023-09-16T15:12:27.903Z,101251.69
2023-09-16T15:14:54.592Z,101252.53
2023-09-16T15:17:21.104Z,101235.31
2023-09-16T15:19:48.087Z,101229.25
2023-09-16T15:22:14.594Z,101229.88
2023-09-16T15:24:41.299Z,101237.13
2023-09-16T15:27:07.775Z,101241.38
2023-09-16T15:29:34.371Z,101235.31
2023-09-16T15:32:29.704Z,101232.13
2023-09-16T15:34:47.453Z,101245.22
2023-09-16T15:37:14.625Z,101231.84
2023-09-16T15:39:41.326Z,101221.78
2023-09-16T15:42:07.890Z,101222.88
2023-09-16T15:44:34.386Z,101235.94
2023-09-16T15:47:02.612Z,101228.28
2023-09-16T15:49:30.279Z,101216.31
2023-09-16T15:51:57.084Z,101208.16
2023-09-16T15:54:26.071Z,101215.50
2023-09-16T15:56:53.696Z,101216.31
2023-09-16T15:59:20.285Z,101219.03
2023-09-16T16:01:46.983Z,101221.44
2023-09-16T16:04:13.581Z,101227.69
2023-09-16T16:06:41.165Z,101222.13
2023-09-16T16:09:07.769Z,101224.06
2023-09-16T16:11:34.468Z,101228.53
2023-09-16T16:14:01.100Z,101237.50
2023-09-16T16:16:27.849Z,101231.69
2023-09-16T16:18:54.489Z,101232.22
2023-09-16T16:21:21.098Z,101256.97
2023-09-16T16:23:48.201Z,101255.94
2023-09-16T16:26:16.362Z,101254.94
2023-09-16T16:28:43.027Z,101284.06
2023-09-16T16:31:09.738Z,101268.59
2023-09-16T16:33:36.434Z,101269.09
2023-09-16T16:36:04.120Z,101279.84
2023-09-16T16:38:31.046Z,101280.97
2023-09-16T16:40:57.973Z,101285.47
2023-09-16T16:43:24.691Z,101302.69
2023-09-16T16:45:51.331Z,101309.50
2023-09-16T16:48:18.743Z,101311.75
2023-09-16T16:50:45.546Z,101325.09
2023-09-16T16:53:12.046Z,101340.34
2023-09-16T16:55:38.542Z,101346.03
2023-09-16T16:58:05.050Z,101356.59
2023-09-16T17:00:31.593Z,101346.03
2023-09-16T17:02:58.235Z,101357.31
2023-09-16T17:05:27.320Z,101369.06
2023-09-16T17:07:59.946Z,101383.53
2023-09-16T17:10:26.705Z,101384.16
2023-09-16T17:12:53.197Z,101391.56
2023-09-16T17:15:19.695Z,101406.06
2023-09-16T17:17:46.663Z,101399.66
2023-09-16T17:20:14.917Z,101400.13
2023-09-16T17:22:41.455Z,101410.88
2023-09-16T17:25:08.351Z,101413.41
2023-09-16T17:27:34.878Z,101418.13
2023-09-16T17:30:02.497Z,101427.69
2023-09-16T17:32:29.201Z,101434.53
2023-09-16T17:34:55.802Z,101437.31
2023-09-16T17:37:22.448Z,101443.16
2023-09-16T17:39:48.979Z,101436.09
2023-09-16T17:42:15.445Z,101439.13
2023-09-16T17:44:41.954Z,101445.31
2023-09-16T17:47:08.460Z,101443.72
2023-09-16T17:49:35.013Z,101450.97
2023-09-16T17:52:01.573Z,101446.41
2023-09-16T17:54:28.110Z,101448.47
2023-09-16T17:56:54.769Z,101442.69
2023-09-16T17:59:22.102Z,101452.00
2023-09-16T18:01:48.831Z,101446.22
2023-09-16T18:04:15.433Z,101444.13
2023-09-16T18:06:42.567Z,101451.19
2023-09-16T18:09:11.802Z,101458.22
2023-09-16T18:11:38.352Z,101459.50
2023-09-16T18:14:05.461Z,101466.31
2023-09-16T18:16:35.098Z,101467.56
2023-09-16T18:19:01.663Z,101467.56
2023-09-16T18:21:28.412Z,101468.38
2023-09-16T18:23:54.919Z,101473.97
2023-09-16T18:26:21.530Z,101476.66
2023-09-16T18:28:48.207Z,101472.34
2023-09-16T18:31:16.922Z,101468.41
2023-09-16T18:33:44.369Z,101476.47
2023-09-16T18:36:11.337Z,101468.00
2023-09-16T18:38:40.351Z,101473.16
2023-09-16T18:41:06.902Z,101474.81
2023-09-16T18:43:34.488Z,101474.84
2023-09-16T18:46:03.476Z,101475.84
2023-09-16T18:48:30.154Z,101475.44
2023-09-16T18:50:56.752Z,101480.97
2023-09-16T18:53:24.247Z,101482.66
2023-09-16T18:55:50.734Z,101483.72
2023-09-16T18:58:17.297Z,101481.03
2023-09-16T19:00:44.229Z,101478.94
2023-09-16T19:03:11.158Z,101485.94
2023-09-16T19:05:41.601Z,101488.63
2023-09-16T19:08:09.901Z,101492.34
2023-09-16T19:10:38.238Z,101493.00
2023-09-16T19:13:05.036Z,101491.78
2023-09-16T19:15:33.109Z,101495.88
2023-09-16T19:17:59.971Z,101495.44
2023-09-16T19:20:26.616Z,101498.53
2023-09-16T19:22:53.713Z,101500.34
2023-09-16T19:25:20.307Z,101500.31
2023-09-16T19:27:46.859Z,101497.22
2023-09-16T19:30:13.749Z,101507.38
2023-09-16T19:32:40.239Z,101504.25
2023-09-16T19:35:07.386Z,101500.94
2023-09-16T19:37:33.912Z,101506.25
2023-09-16T19:40:02.484Z,101504.03
2023-09-16T19:42:29.360Z,101508.75
2023-09-16T19:44:56.204Z,101505.25
2023-09-16T19:47:25.329Z,101503.75
2023-09-16T19:49:54.433Z,101501.91
2023-09-16T19:52:21.073Z,101511.41
2023-09-16T19:54:47.599Z,101510.75
2023-09-16T19:57:14.243Z,101510.44
2023-09-16T19:59:40.909Z,101507.56
2023-09-16T20:02:07.478Z,101512.06
2023-09-16T20:04:34.099Z,101509.94
2023-09-16T20:07:01.813Z,101507.03
2023-09-16T20:09:29.177Z,101509.88
2023-09-16T20:11:55.802Z,101512.09
2023-09-16T20:14:22.280Z,101511.50
2023-09-16T20:16:48.914Z,101514.59
2023-09-16T20:19:19.659Z,101511.38
2023-09-16T20:21:47.593Z,101509.69
2023-09-16T20:24:14.084Z,101508.44
2023-09-16T20:26:40.847Z,101508.91
2023-09-16T20:29:07.334Z,101499.41
2023-09-16T20:31:34.124Z,101498.59
2023-09-16T20:34:10.026Z,101502.03
2023-09-16T20:36:38.070Z,101498.09
2023-09-16T20:39:07.752Z,101496.84
2023-09-16T20:41:34.325Z,101506.59
2023-09-16T20:44:02.585Z,101503.78
2023-09-16T20:46:29.945Z,101497.31
2023-09-16T20:48:56.674Z,101499.13
2023-09-16T20:51:23.125Z,101498.13
2023-09-16T20:53:49.893Z,101497.50
2023-09-16T20:56:16.608Z,101498.84
2023-09-16T20:58:44.019Z,101502.97
2023-09-16T21:01:10.815Z,101500.03
2023-09-16T21:03:38.533Z,101497.06
2023-09-16T21:06:05.282Z,101504.00
2023-09-16T21:08:31.941Z,101494.22
2023-09-16T21:10:58.407Z,101496.09
2023-09-16T21:13:24.949Z,101494.81
2023-09-16T21:15:52.140Z,101491.03
2023-09-16T21:18:18.949Z,101501.28
2023-09-16T21:20:45.384Z,101489.28
2023-09-16T21:23:12.551Z,101495.00
2023-09-16T21:25:40.630Z,101490.19
2023-09-16T21:28:08.089Z,101494.09
2023-09-16T21:30:34.838Z,101496.88
2023-09-16T21:33:01.652Z,101498.09
2023-09-16T21:35:29.910Z,101495.34
2023-09-16T21:37:56.770Z,101501.41
2023-09-16T21:40:24.326Z,101495.47
2023-09-16T21:42:52.314Z,101499.09
2023-09-16T21:45:19.067Z,101514.34
2023-09-16T21:47:45.721Z,101509.16
2023-09-16T21:50:12.422Z,101507.56
2023-09-16T21:52:38.921Z,101508.72
2023-09-16T21:55:05.904Z,101497.06
2023-09-16T21:57:32.459Z,101493.91
2023-09-16T21:59:58.960Z,101490.41
2023-09-16T22:02:25.463Z,101498.22
2023-09-16T22:04:52.588Z,101493.81
2023-09-16T22:07:19.086Z,101496.13
2023-09-16T22:09:47.235Z,101494.75
2023-09-16T22:12:13.729Z,101495.41
2023-09-16T22:14:40.233Z,101490.50
2023-09-16T22:17:06.736Z,101494.34
2023-09-16T22:19:33.300Z,101493.31
2023-09-16T22:22:01.279Z,101494.88
2023-09-16T22:24:27.805Z,101503.38
2023-09-16T22:26:54.421Z,101502.34
2023-09-16T22:29:20.953Z,101499.63
2023-09-16T22:31:48.591Z,101497.78
2023-09-16T22:34:15.099Z,101498.63
2023-09-16T22:36:41.697Z,101496.97
2023-09-16T22:39:09.388Z,101498.78
2023-09-16T22:41:36.323Z,101493.81
2023-09-16T22:44:03.884Z,101495.19
2023-09-16T22:46:30.479Z,101494.25
2023-09-16T22:48:57.051Z,101502.53
2023-09-16T22:51:23.546Z,101505.53
2023-09-16T22:53:50.187Z,101505.63
2023-09-16T22:56:16.865Z,101518.34
2023-09-16T22:58:45.692Z,101520.63
2023-09-16T23:01:12.942Z,101502.38
2023-09-16T23:03:39.836Z,101507.38
2023-09-16T23:06:06.406Z,101518.63
2023-09-16T23:08:33.017Z,101516.38
2023-09-16T23:10:59.509Z,101509.03
2023-09-16T23:13:26.045Z,101511.16
2023-09-16T23:15:52.711Z,101512.38
2023-09-16T23:18:19.199Z,101513.28
2023-09-16T23:20:58.427Z,101507.31
2023-09-16T23:23:26.293Z,101507.84
2023-09-16T23:25:54.468Z,101510.41
2023-09-16T23:28:21.996Z,101510.09
2023-09-16T23:30:48.515Z,101510.81
2023-09-16T23:33:16.413Z,101518.63
2023-09-16T23:35:42.947Z,101512.09
2023-09-16T23:38:09.634Z,101512.81
2023-09-16T23:40:36.544Z,101512.66
2023-09-16T23:43:04.495Z,101516.81
2023-09-16T23:45:31.141Z,101518.34
2023-09-16T23:47:57.624Z,101517.41
2023-09-16T23:50:24.257Z,101511.03
2023-09-16T23:52:50.725Z,101517.34
2023-09-16T23:55:18.411Z,101507.69
2023-09-16T23:57:44.940Z,101510.53
